createdAt,value
2022-11-12T00:00:06.904Z,7.49
2022-11-12T00:02:33.559Z,7.58
2022-11-12T00:05:00.200Z,7.19
2022-11-12T00:07:26.856Z,7.17
2022-11-12T00:09:53.537Z,7.45
2022-11-12T00:12:20.246Z,7.48
2022-11-12T00:14:46.919Z,7.50
2022-11-12T00:17:13.571Z,7.25
2022-11-12T00:19:40.283Z,7.29
2022-11-12T00:22:06.972Z,7.42
2022-11-12T00:24:33.600Z,7.58
2022-11-12T00:27:00.251Z,7.49
2022-11-12T00:29:26.946Z,7.42
2022-11-12T00:31:53.659Z,7.37
2022-11-12T00:34:20.322Z,7.98
2022-11-12T00:36:46.984Z,8.07
2022-11-12T00:39:13.680Z,8.32
2022-11-12T00:41:40.360Z,8.44
2022-11-12T00:44:07.015Z,8.45
2022-11-12T00:46:33.690Z,8.27
2022-11-12T00:49:00.597Z,8.17
2022-11-12T00:51:27.236Z,8.14
2022-11-12T00:53:53.885Z,7.84
2022-11-12T00:56:20.533Z,8.03
2022-11-12T00:58:47.189Z,7.62
2022-11-12T01:01:14.607Z,7.24
2022-11-12T01:03:41.642Z,7.05
2022-11-12T01:06:09.514Z,7.60
2022-11-12T01:08:36.243Z,8.09
2022-11-12T01:11:28.948Z,7.99
2022-11-12T01:13:56.949Z,8.19
2022-11-12T01:16:24.170Z,8.06
2022-11-12T01:18:58.077Z,8.41
2022-11-12T01:21:25.507Z,8.57
2022-11-12T01:23:52.157Z,8.66
2022-11-12T01:26:19.927Z,8.99
2022-11-12T01:28:46.795Z,8.82
2022-11-12T01:31:14.689Z,8.93
2022-11-12T01:33:41.876Z,8.86
2022-11-12T01:36:08.896Z,9.15
2022-11-12T01:38:39.040Z,9.00
2022-11-12T01:41:06.123Z,8.80
2022-11-12T01:43:32.874Z,9.03
2022-11-12T01:46:00.045Z,8.94
2022-11-12T01:48:27.581Z,9.08
2022-11-12T01:50:54.500Z,9.26
2022-11-12T01:53:21.488Z,9.20
2022-11-12T01:55:48.141Z,9.59
2022-11-12T01:58:15.427Z,9.23
2022-11-12T02:00:42.359Z,8.96
2022-11-12T02:03:35.108Z,8.93
2022-11-12T02:06:06.254Z,8.68
2022-11-12T02:08:32.973Z,8.84
2022-11-12T02:10:59.665Z,9.27
2022-11-12T02:13:44.838Z,9.45
2022-11-12T02:16:11.512Z,8.96
2022-11-12T02:18:38.164Z,8.97
2022-11-12T02:21:05.749Z,8.90
2022-11-12T02:23:32.526Z,8.85
2022-11-12T02:25:59.924Z,8.72
2022-11-12T02:28:27.191Z,8.66
2022-11-12T02:30:54.167Z,8.87
2022-11-12T02:33:20.834Z,9.05
2022-11-12T02:35:47.547Z,8.97
2022-11-12T02:38:14.192Z,8.67
2022-11-12T02:40:40.829Z,8.87
2022-11-12T02:43:07.486Z,8.18
2022-11-12T02:45:34.154Z,8.62
2022-11-12T02:48:00.893Z,8.61
2022-11-12T02:50:27.591Z,8.67
2022-11-12T02:52:54.233Z,8.73
2022-11-12T02:55:20.895Z,8.28
2022-11-12T02:57:47.587Z,8.24
2022-11-12T03:00:14.360Z,8.38
2022-11-12T03:02:43.090Z,8.28
2022-11-12T03:05:10.959Z,8.41
2022-11-12T03:07:37.786Z,8.45
2022-11-12T03:10:05.438Z,8.53
2022-11-12T03:12:32.566Z,8.30
2022-11-12T03:14:59.292Z,8.36
2022-11-12T03:17:26.036Z,8.32
2022-11-12T03:19:52.705Z,8.42
2022-11-12T03:22:19.374Z,8.51
2022-11-12T03:24:46.024Z,8.56
2022-11-12T03:27:12.661Z,8.65
2022-11-12T03:29:39.353Z,8.61
2022-11-12T03:32:06.084Z,8.51
2022-11-12T03:34:32.759Z,8.29
2022-11-12T03:36:59.420Z,8.52
2022-11-12T03:39:26.069Z,9.01
2022-11-12T03:41:52.714Z,8.82
2022-11-12T03:44:19.355Z,8.45
2022-11-12T03:46:46.024Z,8.45
2022-11-12T03:49:12.701Z,8.75
2022-11-12T03:51:39.427Z,8.64
2022-11-12T03:54:06.161Z,8.95
2022-11-12T03:56:32.818Z,8.54
2022-11-12T03:58:59.465Z,8.77
2022-11-12T04:01:26.234Z,9.12
2022-11-12T04:03:52.995Z,9.45
2022-11-12T04:06:38.198Z,9.53
2022-11-12T04:09:04.941Z,8.99
2022-11-12T04:11:31.605Z,8.79
2022-11-12T04:13:58.333Z,9.28
2022-11-12T04:16:43.780Z,9.25
2022-11-12T04:19:31.932Z,8.47
2022-11-12T04:22:01.370Z,8.80
2022-11-12T04:24:47.800Z,8.45
2022-11-12T04:27:15.448Z,9.16
2022-11-12T04:30:01.154Z,9.44
2022-11-12T04:32:28.303Z,9.89
2022-11-12T04:34:55.240Z,9.72
2022-11-12T04:37:23.647Z,9.29
2022-11-12T04:39:50.801Z,9.46
2022-11-12T04:42:35.686Z,8.75
2022-11-12T04:45:05.561Z,8.89
2022-11-12T04:47:32.263Z,8.80
2022-11-12T04:49:58.914Z,9.16
2022-11-12T04:52:26.222Z,9.12
2022-11-12T04:54:53.163Z,9.37
2022-11-12T04:57:19.848Z,9.82
2022-11-12T04:59:46.917Z,9.17
2022-11-12T05:02:13.899Z,8.93
2022-11-12T05:04:40.550Z,9.24
2022-11-12T05:07:07.311Z,9.15
2022-11-12T05:09:34.082Z,8.79
2022-11-12T05:12:00.751Z,8.55
2022-11-12T05:14:27.414Z,8.51
2022-11-12T05:16:54.077Z,8.66
2022-11-12T05:19:20.744Z,8.73
2022-11-12T05:22:05.604Z,9.23
2022-11-12T05:24:41.951Z,9.39
2022-11-12T05:27:13.978Z,9.11
2022-11-12T05:29:40.926Z,9.35
2022-11-12T05:32:08.078Z,9.95
2022-11-12T05:34:34.772Z,9.75
2022-11-12T05:37:04.689Z,10.01
2022-11-12T05:39:31.389Z,9.82
2022-11-12T05:42:12.602Z,9.30
2022-11-12T05:44:39.986Z,8.46
2022-11-12T05:47:06.679Z,8.19
2022-11-12T05:49:33.373Z,7.86
2022-11-12T05:52:00.021Z,9.02
2022-11-12T05:54:26.764Z,9.50
2022-11-12T05:56:56.370Z,9.35
2022-11-12T05:59:23.048Z,9.63
2022-11-12T06:01:49.812Z,9.53
2022-11-12T06:04:16.753Z,9.75
2022-11-12T06:06:43.734Z,9.36
2022-11-12T06:09:10.667Z,8.26
2022-11-12T06:11:37.559Z,8.96
2022-11-12T06:14:04.416Z,8.82
2022-11-12T06:16:31.427Z,8.74
2022-11-12T06:18:58.356Z,8.57
2022-11-12T06:21:25.064Z,7.74
2022-11-12T06:23:57.671Z,8.07
2022-11-12T06:26:25.187Z,7.50
2022-11-12T06:28:51.923Z,8.21
2022-11-12T06:31:19.129Z,7.83
2022-11-12T06:33:45.836Z,8.22
2022-11-12T06:36:13.437Z,8.29
2022-11-12T06:38:40.393Z,8.95
2022-11-12T06:41:07.615Z,8.31
2022-11-12T06:43:34.451Z,8.67
2022-11-12T06:46:02.031Z,8.79
2022-11-12T06:48:29.264Z,8.57
2022-11-12T06:50:56.411Z,8.91
2022-11-12T06:53:23.443Z,9.38
2022-11-12T06:55:50.108Z,10.10
2022-11-12T06:58:16.784Z,10.02
2022-11-12T07:00:43.491Z,10.37
2022-11-12T07:03:10.386Z,10.33
2022-11-12T07:05:38.178Z,10.45
2022-11-12T07:08:05.566Z,11.13
2022-11-12T07:10:32.363Z,11.46
2022-11-12T07:12:59.160Z,11.71
2022-11-12T07:15:25.797Z,11.89
2022-11-12T07:17:52.426Z,11.82
2022-11-12T07:20:19.112Z,11.35
2022-11-12T07:22:45.895Z,11.28
2022-11-12T07:25:12.551Z,12.33
2022-11-12T07:27:39.279Z,13.07
2022-11-12T07:30:06.560Z,12.64
2022-11-12T07:32:35.306Z,11.90
2022-11-12T07:35:05.528Z,11.52
2022-11-12T07:37:32.174Z,11.11
2022-11-12T07:40:00.243Z,11.19
2022-11-12T07:42:26.896Z,11.46
2022-11-12T07:44:53.549Z,11.11
2022-11-12T07:47:20.183Z,11.43
2022-11-12T07:49:46.859Z,12.25
2022-11-12T07:52:13.485Z,12.85
2022-11-12T07:54:40.146Z,13.39
2022-11-12T07:57:06.860Z,13.56
2022-11-12T07:59:33.568Z,13.48
2022-11-12T08:02:00.309Z,13.14
2022-11-12T08:04:26.998Z,13.10
2022-11-12T08:06:53.762Z,12.83
2022-11-12T08:09:20.486Z,12.29
2022-11-12T08:11:47.137Z,12.29
2022-11-12T08:14:13.777Z,12.07
2022-11-12T08:16:40.483Z,12.02
2022-11-12T08:19:07.190Z,11.90
2022-11-12T08:21:33.842Z,11.47
2022-11-12T08:24:00.508Z,11.65
2022-11-12T08:26:27.188Z,11.66
2022-11-12T08:28:53.843Z,12.15
2022-11-12T08:31:21.349Z,13.19
2022-11-12T08:33:48.019Z,14.33
2022-11-12T08:36:15.234Z,14.72
2022-11-12T08:38:42.304Z,15.01
2022-11-12T08:41:10.138Z,14.91
2022-11-12T08:43:37.056Z,14.87
2022-11-12T08:46:03.887Z,14.92
2022-11-12T08:48:30.948Z,14.97
2022-11-12T08:50:57.856Z,15.03
2022-11-12T08:53:25.049Z,15.00
2022-11-12T08:55:55.475Z,15.05
2022-11-12T08:58:22.357Z,15.61
2022-11-12T09:00:51.022Z,16.17
2022-11-12T09:03:18.785Z,17.20
2022-11-12T09:05:45.483Z,16.96
2022-11-12T09:08:13.884Z,17.09
2022-11-12T09:10:40.600Z,18.02
2022-11-12T09:13:07.288Z,18.66
2022-11-12T09:15:38.578Z,18.13
2022-11-12T09:18:06.473Z,18.79
2022-11-12T09:20:33.201Z,18.14
2022-11-12T09:23:03.625Z,16.82
2022-11-12T09:25:30.331Z,15.94
2022-11-12T09:27:57.031Z,15.63
2022-11-12T09:30:23.983Z,15.68
2022-11-12T09:32:50.709Z,14.93
2022-11-12T09:35:17.444Z,15.65
2022-11-12T09:37:44.240Z,15.88
2022-11-12T09:40:16.053Z,15.30
2022-11-12T09:42:42.718Z,15.08
2022-11-12T09:45:14.381Z,15.69
2022-11-12T09:47:47.891Z,15.75
2022-11-12T09:50:33.600Z,16.09
2022-11-12T09:53:05.924Z,15.64
2022-11-12T09:55:40.063Z,16.47
2022-11-12T09:58:13.348Z,16.84
2022-11-12T10:00:56.617Z,17.38
2022-11-12T10:03:41.777Z,17.28
2022-11-12T10:06:10.861Z,15.78
2022-11-12T10:08:39.954Z,16.10
2022-11-12T10:11:09.799Z,16.08
2022-11-12T10:13:51.928Z,15.53
2022-11-12T10:16:44.748Z,14.59
2022-11-12T10:19:30.163Z,14.69
2022-11-12T10:21:56.825Z,14.11
2022-11-12T10:24:24.347Z,14.94
2022-11-12T10:26:51.005Z,15.08
2022-11-12T10:29:24.054Z,14.24
2022-11-12T10:31:50.755Z,14.64
2022-11-12T10:34:19.356Z,14.64
2022-11-12T10:36:47.347Z,14.41
2022-11-12T10:39:33.602Z,14.13
2022-11-12T10:42:07.925Z,14.07
2022-11-12T10:44:34.588Z,13.94
2022-11-12T10:47:21.484Z,13.76
2022-11-12T10:50:06.631Z,13.56
2022-11-12T10:52:33.361Z,13.18
2022-11-12T10:55:15.489Z,13.02
2022-11-12T10:57:42.204Z,12.99
2022-11-12T11:00:14.773Z,12.36
2022-11-12T11:02:54.470Z,12.54
2022-11-12T11:05:37.600Z,12.55
2022-11-12T11:08:04.964Z,12.81
2022-11-12T11:10:33.117Z,12.86
2022-11-12T11:13:09.233Z,12.80
2022-11-12T11:15:36.228Z,13.06
2022-11-12T11:18:02.887Z,12.90
2022-11-12T11:20:31.856Z,13.00
2022-11-12T11:23:10.572Z,13.20
2022-11-12T11:25:37.232Z,13.51
2022-11-12T11:28:13.234Z,13.83
2022-11-12T11:30:42.102Z,13.48
2022-11-12T11:33:17.658Z,13.69
2022-11-12T11:35:56.425Z,13.82
2022-11-12T11:38:35.013Z,14.20
2022-11-12T11:41:20.130Z,15.06
2022-11-12T11:43:46.808Z,15.02
2022-11-12T11:46:29.285Z,14.94
2022-11-12T11:49:08.457Z,15.87
2022-11-12T11:51:50.489Z,15.16
2022-11-12T11:54:29.055Z,14.49
2022-11-12T11:56:58.600Z,14.83
2022-11-12T11:59:34.343Z,14.75
2022-11-12T12:02:13.143Z,14.34
2022-11-12T12:04:47.244Z,13.90
2022-11-12T12:07:22.309Z,13.55
2022-11-12T12:09:51.827Z,13.52
2022-11-12T12:12:36.864Z,12.96
2022-11-12T12:15:09.754Z,13.11
2022-11-12T12:17:40.599Z,13.64
2022-11-12T12:20:13.345Z,13.75
2022-11-12T12:22:39.995Z,14.02
2022-11-12T12:25:14.800Z,13.66
2022-11-12T12:27:47.986Z,13.68
2022-11-12T12:30:17.771Z,13.57
2022-11-12T12:32:50.415Z,14.38
2022-11-12T12:35:21.501Z,14.78
2022-11-12T12:37:52.144Z,14.31
2022-11-12T12:40:22.963Z,14.26
2022-11-12T12:42:52.875Z,13.57
2022-11-12T12:45:25.315Z,14.22
2022-11-12T12:47:52.579Z,14.32
2022-11-12T12:50:19.425Z,14.15
2022-11-12T12:53:02.714Z,13.74
2022-11-12T12:55:36.739Z,12.98
2022-11-12T12:58:03.441Z,13.60
2022-11-12T13:00:34.457Z,13.68
2022-11-12T13:03:01.177Z,13.35
2022-11-12T13:05:30.598Z,13.63
2022-11-12T13:07:58.551Z,13.45
2022-11-12T13:10:41.565Z,13.52
2022-11-12T13:13:17.427Z,13.74
2022-11-12T13:15:45.156Z,13.80
2022-11-12T13:18:17.044Z,14.22
2022-11-12T13:20:44.007Z,14.47
2022-11-12T13:23:11.889Z,13.68
2022-11-12T13:25:38.705Z,13.69
2022-11-12T13:28:09.491Z,13.58
2022-11-12T13:30:36.139Z,14.01
2022-11-12T13:33:06.425Z,13.59
2022-11-12T13:35:40.355Z,13.28
2022-11-12T13:38:12.971Z,13.28
2022-11-12T13:40:41.472Z,13.35
2022-11-12T13:43:14.031Z,12.86
2022-11-12T13:45:49.863Z,13.13
2022-11-12T13:48:26.065Z,13.32
2022-11-12T13:50:54.609Z,13.40
2022-11-12T13:53:25.514Z,13.50
2022-11-12T13:55:52.844Z,13.53
2022-11-12T13:58:26.033Z,13.40
2022-11-12T14:00:56.426Z,13.25
2022-11-12T14:03:23.196Z,13.03
2022-11-12T14:05:49.981Z,13.14
2022-11-12T14:08:26.980Z,12.98
2022-11-12T14:11:04.007Z,13.43
2022-11-12T14:13:30.625Z,13.26
2022-11-12T14:16:23.481Z,12.96
2022-11-12T14:19:00.825Z,12.68
2022-11-12T14:21:27.527Z,13.14
2022-11-12T14:23:54.202Z,13.16
2022-11-12T14:26:34.821Z,12.89
2022-11-12T14:29:01.488Z,12.94
2022-11-12T14:31:28.134Z,12.73
2022-11-12T14:33:54.796Z,12.91
2022-11-12T14:36:21.437Z,13.19
2022-11-12T14:38:55.079Z,13.15
2022-11-12T14:41:22.925Z,13.26
2022-11-12T14:44:07.411Z,13.39
2022-11-12T14:46:47.925Z,13.18
2022-11-12T14:49:19.325Z,13.04
2022-11-12T14:51:55.896Z,12.89
2022-11-12T14:54:28.841Z,13.49
2022-11-12T14:56:55.539Z,13.39
2022-11-12T14:59:22.198Z,12.92
2022-11-12T15:02:31.305Z,13.08
2022-11-12T15:04:55.994Z,13.00
2022-11-12T15:07:26.835Z,13.22
2022-11-12T15:09:53.686Z,13.00
2022-11-12T15:12:21.151Z,13.22
2022-11-12T15:14:48.038Z,13.17
2022-11-12T15:17:23.751Z,13.23
2022-11-12T15:19:50.381Z,13.43
2022-11-12T15:22:20.920Z,13.04
2022-11-12T15:24:49.312Z,12.93
2022-11-12T15:27:34.812Z,12.95
2022-11-12T15:30:18.036Z,13.03
2022-11-12T15:32:44.973Z,12.76
2022-11-12T15:35:21.474Z,12.58
2022-11-12T15:37:48.110Z,12.56
2022-11-12T15:40:18.873Z,12.87
2022-11-12T15:42:45.575Z,12.87
2022-11-12T15:45:12.376Z,13.43
2022-11-12T15:47:39.048Z,12.69
2022-11-12T15:50:16.205Z,12.64
2022-11-12T15:52:42.884Z,12.74
2022-11-12T15:55:09.802Z,12.68
2022-11-12T15:57:38.766Z,12.61
2022-11-12T16:00:08.380Z,12.35
2022-11-12T16:02:35.451Z,12.84
2022-11-12T16:05:02.388Z,12.69
2022-11-12T16:07:29.044Z,12.26
2022-11-12T16:09:55.759Z,12.70
2022-11-12T16:12:22.448Z,12.18
2022-11-12T16:14:49.203Z,13.09
2022-11-12T16:17:16.990Z,12.67
2022-11-12T16:19:43.726Z,12.57
2022-11-12T16:22:13.309Z,12.64
2022-11-12T16:24:40.541Z,12.50
2022-11-12T16:27:10.424Z,12.40
2022-11-12T16:29:37.099Z,12.40
2022-11-12T16:32:04.668Z,12.49
2022-11-12T16:34:31.390Z,12.59
2022-11-12T16:36:58.182Z,12.75
2022-11-12T16:39:24.910Z,12.89
2022-11-12T16:41:51.551Z,12.89
2022-11-12T16:44:18.244Z,12.83
2022-11-12T16:46:44.932Z,12.56
2022-11-12T16:49:12.551Z,11.96
2022-11-12T16:51:39.294Z,11.54
2022-11-12T16:54:05.998Z,11.73
2022-11-12T16:56:32.669Z,11.67
2022-11-12T16:58:59.331Z,11.67
2022-11-12T17:01:30.430Z,12.28
2022-11-12T17:03:57.298Z,12.07
2022-11-12T17:06:24.498Z,12.31
2022-11-12T17:11:21.189Z,12.35
2022-11-12T17:13:47.822Z,12.83
2022-11-12T17:16:14.476Z,13.14
2022-11-12T17:18:41.133Z,12.61
2022-11-12T17:21:11.605Z,12.30
2022-11-12T17:23:38.396Z,12.06
2022-11-12T17:26:06.053Z,11.72
2022-11-12T17:28:32.830Z,11.11
2022-11-12T17:31:06.406Z,12.08
2022-11-12T17:33:33.261Z,12.55
2022-11-12T17:36:03.280Z,12.61
2022-11-12T17:38:30.252Z,12.35
2022-11-12T17:40:57.568Z,12.56
2022-11-12T17:43:24.622Z,12.16
2022-11-12T17:45:52.133Z,12.29
2022-11-12T17:48:19.046Z,12.25
2022-11-12T17:50:46.078Z,12.09
2022-11-12T17:53:12.741Z,12.49
2022-11-12T17:55:39.591Z,12.72
2022-11-12T17:58:06.264Z,12.78
2022-11-12T18:00:32.974Z,12.30
2022-11-12T18:02:59.673Z,12.13
2022-11-12T18:05:26.424Z,12.19
2022-11-12T18:07:53.126Z,12.45
2022-11-12T18:10:19.937Z,12.59
2022-11-12T18:12:46.601Z,12.74
2022-11-12T18:15:13.381Z,12.59
2022-11-12T18:17:40.081Z,12.34
2022-11-12T18:20:07.037Z,12.42
2022-11-12T18:22:33.702Z,12.07
2022-11-12T18:25:00.380Z,12.62
2022-11-12T18:27:27.045Z,12.42
2022-11-12T18:29:53.724Z,12.27
2022-11-12T18:32:20.353Z,12.19
2022-11-12T18:34:47.063Z,12.07
2022-11-12T18:37:13.850Z,12.14
2022-11-12T18:39:41.535Z,12.40
2022-11-12T18:42:08.213Z,12.20
2022-11-12T18:44:34.848Z,12.14
2022-11-12T18:47:01.520Z,11.92
2022-11-12T18:49:28.202Z,11.47
2022-11-12T18:51:54.939Z,11.39
2022-11-12T18:54:21.588Z,11.14
2022-11-12T18:56:48.883Z,11.19
2022-11-12T18:59:16.482Z,11.20
2022-11-12T19:01:43.156Z,11.02
2022-11-12T19:04:10.797Z,10.74
2022-11-12T19:06:37.510Z,10.84
2022-11-12T19:09:06.056Z,11.08
2022-11-12T19:11:32.712Z,11.69
2022-11-12T19:13:59.415Z,11.74
2022-11-12T19:16:26.058Z,11.61
2022-11-12T19:18:52.720Z,11.13
2022-11-12T19:21:20.356Z,11.10
2022-11-12T19:23:52.714Z,11.03
2022-11-12T19:26:20.675Z,11.14
2022-11-12T19:28:47.430Z,11.41
2022-11-12T19:31:15.231Z,11.05
2022-11-12T19:33:41.902Z,11.40
2022-11-12T19:36:09.673Z,11.26
2022-11-12T19:38:36.556Z,11.11
2022-11-12T19:41:04.354Z,10.47
2022-11-12T19:43:31.016Z,9.14
2022-11-12T19:45:57.684Z,9.27
2022-11-12T19:48:24.615Z,9.96
2022-11-12T19:50:51.396Z,10.55
2022-11-12T19:53:18.055Z,11.16
2022-11-12T19:55:44.719Z,11.53
2022-11-12T19:58:11.372Z,11.19
2022-11-12T20:00:38.159Z,11.25
2022-11-12T20:03:04.816Z,11.28
2022-11-12T20:05:31.533Z,11.11
2022-11-12T20:07:58.166Z,11.77
2022-11-12T20:10:25.822Z,11.97
2022-11-12T20:12:52.519Z,11.57
2022-11-12T20:15:19.222Z,11.14
2022-11-12T20:17:45.859Z,11.07
2022-11-12T20:20:12.589Z,11.19
2022-11-12T20:22:39.274Z,11.61
2022-11-12T20:25:06.169Z,11.60
2022-11-12T20:27:32.888Z,10.81
2022-11-12T20:29:59.583Z,11.02
2022-11-12T20:32:26.413Z,11.06
2022-11-12T20:34:53.167Z,10.98
2022-11-12T20:37:19.871Z,10.75
2022-11-12T20:39:46.808Z,10.83
2022-11-12T20:42:13.595Z,10.71
2022-11-12T20:44:41.322Z,10.43
2022-11-12T20:47:08.026Z,10.37
2022-11-12T20:49:34.681Z,10.36
2022-11-12T20:52:01.319Z,10.43
2022-11-12T20:54:28.003Z,10.56
2022-11-12T20:56:56.200Z,10.60
2022-11-12T20:59:23.505Z,10.52
2022-11-12T21:01:50.189Z,10.37
2022-11-12T21:04:16.871Z,10.26
2022-11-12T21:06:43.606Z,9.60
2022-11-12T21:09:10.297Z,9.73
2022-11-12T21:11:37.012Z,9.75
2022-11-12T21:14:03.692Z,9.71
2022-11-12T21:16:30.377Z,9.72
2022-11-12T21:18:59.718Z,10.12
2022-11-12T21:21:29.446Z,10.35
2022-11-12T21:24:04.412Z,9.96
2022-11-12T21:26:31.627Z,9.68
2022-11-12T21:28:58.304Z,9.83
2022-11-12T21:31:26.018Z,9.33
2022-11-12T21:34:03.783Z,9.02
2022-11-12T21:36:31.062Z,9.52
2022-11-12T21:38:57.829Z,9.52
2022-11-12T21:41:25.333Z,9.41
2022-11-12T21:43:52.236Z,9.34
2022-11-12T21:46:19.925Z,8.78
2022-11-12T21:48:49.928Z,8.44
2022-11-12T21:51:23.155Z,8.11
2022-11-12T21:53:53.550Z,7.61
2022-11-12T21:56:20.204Z,8.29
2022-11-12T21:58:46.896Z,8.69
2022-11-12T22:01:17.230Z,9.20
2022-11-12T22:03:44.272Z,8.97
2022-11-12T22:06:11.103Z,9.52
2022-11-12T22:08:37.868Z,9.22
2022-11-12T22:11:05.550Z,8.79
2022-11-12T22:13:32.522Z,9.09
2022-11-12T22:15:59.323Z,9.15
2022-11-12T22:18:26.422Z,9.56
2022-11-12T22:20:58.971Z,9.28
2022-11-12T22:23:25.751Z,8.49
2022-11-12T22:25:52.685Z,8.72
2022-11-12T22:28:19.407Z,8.49
2022-11-12T22:30:46.088Z,8.25
2022-11-12T22:33:12.752Z,8.77
2022-11-12T22:35:39.422Z,8.61
2022-11-12T22:38:06.099Z,8.36
2022-11-12T22:40:32.764Z,8.54
2022-11-12T22:42:59.419Z,8.81
2022-11-12T22:45:26.096Z,8.52
2022-11-12T22:47:52.765Z,9.21
2022-11-12T22:50:20.428Z,9.22
2022-11-12T22:52:50.163Z,9.03
2022-11-12T22:55:17.066Z,9.34
2022-11-12T22:57:43.712Z,9.31
2022-11-12T23:00:11.692Z,9.27
2022-11-12T23:02:41.223Z,9.38
2022-11-12T23:05:11.461Z,9.43
2022-11-12T23:07:38.096Z,9.41
2022-11-12T23:10:04.994Z,9.46
2022-11-12T23:12:31.643Z,9.06
2022-11-12T23:14:58.334Z,9.06
2022-11-12T23:17:24.974Z,8.55
2022-11-12T23:19:51.676Z,8.89
2022-11-12T23:22:18.320Z,8.80
2022-11-12T23:24:44.976Z,8.59
2022-11-12T23:27:11.649Z,8.60
2022-11-12T23:29:38.369Z,8.69
2022-11-12T23:32:05.058Z,8.30
2022-11-12T23:34:31.695Z,8.09
2022-11-12T23:36:58.364Z,8.28
2022-11-12T23:39:25.995Z,8.43
2022-11-12T23:41:52.647Z,8.26
2022-11-12T23:44:19.348Z,7.95
2022-11-12T23:46:46.011Z,8.01
2022-11-12T23:49:12.710Z,7.90
2022-11-12T23:51:39.377Z,8.18
2022-11-12T23:54:06.149Z,7.87
2022-11-12T23:56:32.798Z,7.89
2022-11-12T23:59:00.861Z,7.97
